PWSweather.com
Personal Weather Stations
Station Observations
PICKERING
North Yorkshire, PickeringGB

North YorkshirePickeringGB

Lat: 54.2494, Lon: -0.7725

Elevation: 192

Station Type: Oregon Scientific WMR100

http://www.yorkshirewalker.co.uk/weather/

High Low Average
Temperature 46.9°F8.3°C 30.2°F-1.0°C 36.6°F2.6°C
Dew Point 41.0°F5.0°C 24.8°F-4.0°C 32.1°F0.1°C
Winds 9.4 mph 15.1 kmh Calm Calm 3.0 mph NNE4.8 kmh NNE
Wind Gusts 15.4 mph24.8 kmh -- 4.0 mph6.4 kmh
Humidity 86% 77% 83%
Pressure 29.41 in995.9 mb 29.30 in992.2 mb -
Precipitation 0.00 in0.0 mm - -
Hour Temp Dew Point Humidity Winds Wind Gusts Pressure Precip Precip Rate Daily Precip Total
12:00 AM 40.5°F4.7°C 37.4°F3.0°C 86% 9.4 mph N15.1 kmh N 15.4 mph24.8 kmh 29.39 in995.3 mb 0.00 in0.0 mm 0.00 in0.0 mm 0.00 in0.0 mm
12:05 AM 40.5°F4.7°C 37.4°F3.0°C 86% 8.6 mph N13.8 kmh N 15.4 mph24.8 kmh 29.39 in995.3 mb 0.00 in0.0 mm 0.00 in0.0 mm 0.00 in0.0 mm
12:10 AM 40.3°F4.6°C 37.4°F3.0°C 86% 8.5 mph N13.7 kmh N 11.9 mph19.2 kmh 29.39 in995.3 mb 0.00 in0.0 mm 0.00 in0.0 mm 0.00 in0.0 mm
12:15 AM 40.3°F4.6°C 37.4°F3.0°C 86% 8.3 mph N13.4 kmh N 13.6 mph21.9 kmh 29.39 in995.3 mb 0.00 in0.0 mm 0.00 in0.0 mm 0.00 in0.0 mm
12:20 AM 40.1°F4.5°C 37.4°F3.0°C 86% 8.8 mph N14.2 kmh N 13.9 mph22.4 kmh 29.39 in995.3 mb 0.00 in0.0 mm 0.00 in0.0 mm 0.00 in0.0 mm
12:25 AM 40.1°F4.5°C 37.4°F3.0°C 86% 8.2 mph N13.2 kmh N 13.9 mph22.4 kmh 29.39 in995.3 mb 0.00 in0.0 mm 0.00 in0.0 mm 0.00 in0.0 mm
12:30 AM 39.9°F4.4°C 35.6°F2.0°C 86% 6.0 mph N9.7 kmh N 10.3 mph16.6 kmh 29.39 in995.3 mb 0.00 in0.0 mm 0.00 in0.0 mm 0.00 in0.0 mm
12:35 AM 39.7°F4.3°C 35.6°F2.0°C 86% 6.1 mph N9.8 kmh N 10.5 mph16.9 kmh 29.39 in995.3 mb 0.00 in0.0 mm 0.00 in0.0 mm 0.00 in0.0 mm
12:40 AM 39.7°F4.3°C 35.6°F2.0°C 86% 5.5 mph N8.9 kmh N 10.5 mph16.9 kmh 29.39 in995.3 mb 0.00 in0.0 mm 0.00 in0.0 mm 0.00 in0.0 mm
12:45 AM 39.6°F4.2°C 35.6°F2.0°C 86% 4.8 mph N7.7 kmh N 8.5 mph13.7 kmh 29.39 in995.3 mb 0.00 in0.0 mm 0.00 in0.0 mm 0.00 in0.0 mm
12:50 AM 39.6°F4.2°C 35.6°F2.0°C 85% 4.9 mph N7.9 kmh N 7.6 mph12.2 kmh 29.39 in995.3 mb 0.00 in0.0 mm 0.00 in0.0 mm 0.00 in0.0 mm
12:55 AM 39.4°F4.1°C 35.6°F2.0°C 85% 5.0 mph N8.0 kmh N 7.6 mph12.2 kmh 29.39 in995.3 mb 0.00 in0.0 mm 0.00 in0.0 mm 0.00 in0.0 mm
01:00 AM 39.2°F4.0°C 35.6°F2.0°C 85% 4.8 mph N7.7 kmh N 7.2 mph11.6 kmh 29.39 in995.3 mb 0.00 in0.0 mm 0.00 in0.0 mm 0.00 in0.0 mm
01:05 AM 39.2°F4.0°C 35.6°F2.0°C 85% 5.4 mph N8.7 kmh N 10.3 mph16.6 kmh 29.39 in995.3 mb 0.00 in0.0 mm 0.00 in0.0 mm 0.00 in0.0 mm
01:10 AM 39.0°F3.9°C 35.6°F2.0°C 85% 5.4 mph N8.7 kmh N 10.3 mph16.6 kmh 29.39 in995.3 mb 0.00 in0.0 mm 0.00 in0.0 mm 0.00 in0.0 mm
01:15 AM 38.8°F3.8°C 35.6°F2.0°C 85% 3.6 mph N5.8 kmh N 7.8 mph12.6 kmh 29.39 in995.3 mb 0.00 in0.0 mm 0.00 in0.0 mm 0.00 in0.0 mm
01:20 AM 38.7°F3.7°C 35.6°F2.0°C 85% 3.8 mph N6.1 kmh N 7.4 mph11.9 kmh 29.39 in995.3 mb 0.00 in0.0 mm 0.00 in0.0 mm 0.00 in0.0 mm
01:25 AM 38.5°F3.6°C 35.6°F2.0°C 85% 4.4 mph N7.1 kmh N 8.1 mph13.0 kmh 29.39 in995.3 mb 0.00 in0.0 mm 0.00 in0.0 mm 0.00 in0.0 mm
01:30 AM 38.5°F3.6°C 35.6°F2.0°C 85% 4.7 mph N7.6 kmh N 8.1 mph13.0 kmh 29.39 in995.3 mb 0.00 in0.0 mm 0.00 in0.0 mm 0.00 in0.0 mm
01:35 AM 38.5°F3.6°C 35.6°F2.0°C 85% 5.1 mph N8.2 kmh N 8.1 mph13.0 kmh 29.39 in995.3 mb 0.00 in0.0 mm 0.00 in0.0 mm 0.00 in0.0 mm
01:40 AM 38.3°F3.5°C 35.6°F2.0°C 85% 5.1 mph N8.2 kmh N 8.1 mph13.0 kmh 29.39 in995.3 mb 0.00 in0.0 mm 0.00 in0.0 mm 0.00 in0.0 mm
01:45 AM 38.1°F3.4°C 33.8°F1.0°C 85% 5.0 mph N8.0 kmh N 9.6 mph15.4 kmh 29.41 in995.9 mb 0.00 in0.0 mm 0.00 in0.0 mm 0.00 in0.0 mm
01:50 AM 38.1°F3.4°C 33.8°F1.0°C 85% 4.7 mph N7.6 kmh N 9.6 mph15.4 kmh 29.41 in995.9 mb 0.00 in0.0 mm 0.00 in0.0 mm 0.00 in0.0 mm
01:55 AM 37.8°F3.2°C 33.8°F1.0°C 85% 4.7 mph N7.6 kmh N 7.2 mph11.6 kmh 29.41 in995.9 mb 0.00 in0.0 mm 0.00 in0.0 mm 0.00 in0.0 mm
02:00 AM 37.8°F3.2°C 33.8°F1.0°C 85% 4.9 mph N7.9 kmh N 7.4 mph11.9 kmh 29.41 in995.9 mb 0.00 in0.0 mm 0.00 in0.0 mm 0.00 in0.0 mm
02:05 AM 37.6°F3.1°C 33.8°F1.0°C 85% 5.2 mph N8.4 kmh N 7.4 mph11.9 kmh 29.41 in995.9 mb 0.00 in0.0 mm 0.00 in0.0 mm 0.00 in0.0 mm
02:10 AM 37.6°F3.1°C 33.8°F1.0°C 85% 5.4 mph N8.7 kmh N 7.4 mph11.9 kmh 29.41 in995.9 mb 0.00 in0.0 mm 0.00 in0.0 mm 0.00 in0.0 mm
02:15 AM 37.2°F2.9°C 33.8°F1.0°C 85% 4.6 mph N7.4 kmh N 5.8 mph9.3 kmh 29.41 in995.9 mb 0.00 in0.0 mm 0.00 in0.0 mm 0.00 in0.0 mm
02:20 AM 37.2°F2.9°C 33.8°F1.0°C 84% 3.9 mph N6.3 kmh N 5.8 mph9.3 kmh 29.41 in995.9 mb 0.00 in0.0 mm 0.00 in0.0 mm 0.00 in0.0 mm
02:25 AM 36.9°F2.7°C 33.8°F1.0°C 84% 2.9 mph N4.7 kmh N 3.8 mph6.1 kmh 29.41 in995.9 mb 0.00 in0.0 mm 0.00 in0.0 mm 0.00 in0.0 mm
02:30 AM 36.7°F2.6°C 33.8°F1.0°C 84% 3.6 mph N5.8 kmh N 5.6 mph9.0 kmh 29.39 in995.3 mb 0.00 in0.0 mm 0.00 in0.0 mm 0.00 in0.0 mm
02:35 AM 36.7°F2.6°C 33.8°F1.0°C 84% 4.3 mph N6.9 kmh N 5.8 mph9.3 kmh 29.39 in995.3 mb 0.00 in0.0 mm 0.00 in0.0 mm 0.00 in0.0 mm
02:40 AM 36.3°F2.4°C 32.0°F0.0°C 84% 3.1 mph N5.0 kmh N 5.8 mph9.3 kmh 29.39 in995.3 mb 0.00 in0.0 mm 0.00 in0.0 mm 0.00 in0.0 mm
02:45 AM 36.1°F2.3°C 32.0°F0.0°C 84% 2.5 mph N4.0 kmh N 5.6 mph9.0 kmh 29.39 in995.3 mb 0.00 in0.0 mm 0.00 in0.0 mm 0.00 in0.0 mm
02:50 AM 36.1°F2.3°C 32.0°F0.0°C 84% 3.2 mph N5.1 kmh N 5.6 mph9.0 kmh 29.39 in995.3 mb 0.00 in0.0 mm 0.00 in0.0 mm 0.00 in0.0 mm
02:55 AM 36.0°F2.2°C 32.0°F0.0°C 84% 3.1 mph N5.0 kmh N 5.4 mph8.7 kmh 29.39 in995.3 mb 0.00 in0.0 mm 0.00 in0.0 mm 0.00 in0.0 mm
03:00 AM 35.8°F2.1°C 32.0°F0.0°C 84% 2.9 mph N4.7 kmh N 4.3 mph6.9 kmh 29.39 in995.3 mb 0.00 in0.0 mm 0.00 in0.0 mm 0.00 in0.0 mm
03:05 AM 36.0°F2.2°C 32.0°F0.0°C 84% 3.4 mph N5.5 kmh N 4.9 mph7.9 kmh 29.39 in995.3 mb 0.00 in0.0 mm 0.00 in0.0 mm 0.00 in0.0 mm
03:10 AM 36.0°F2.2°C 32.0°F0.0°C 84% 3.8 mph N6.1 kmh N 6.5 mph10.5 kmh 29.39 in995.3 mb 0.00 in0.0 mm 0.00 in0.0 mm 0.00 in0.0 mm
03:15 AM 35.8°F2.1°C 32.0°F0.0°C 84% 3.8 mph N6.1 kmh N 6.5 mph10.5 kmh 29.39 in995.3 mb 0.00 in0.0 mm 0.00 in0.0 mm 0.00 in0.0 mm
03:20 AM 35.6°F2.0°C 32.0°F0.0°C 84% 3.2 mph N5.1 kmh N 4.9 mph7.9 kmh 29.39 in995.3 mb 0.00 in0.0 mm 0.00 in0.0 mm 0.00 in0.0 mm
03:25 AM 35.6°F2.0°C 32.0°F0.0°C 84% 3.3 mph N5.3 kmh N 4.9 mph7.9 kmh 29.39 in995.3 mb 0.00 in0.0 mm 0.00 in0.0 mm 0.00 in0.0 mm
03:30 AM 35.6°F2.0°C 32.0°F0.0°C 84% 3.7 mph N6.0 kmh N 4.9 mph7.9 kmh 29.39 in995.3 mb 0.00 in0.0 mm 0.00 in0.0 mm 0.00 in0.0 mm
03:35 AM 35.6°F2.0°C 32.0°F0.0°C 84% 3.6 mph N5.8 kmh N 5.6 mph9.0 kmh 29.39 in995.3 mb 0.00 in0.0 mm 0.00 in0.0 mm 0.00 in0.0 mm
03:40 AM 35.6°F2.0°C 32.0°F0.0°C 84% 3.2 mph N5.1 kmh N 5.6 mph9.0 kmh 29.39 in995.3 mb 0.00 in0.0 mm 0.00 in0.0 mm 0.00 in0.0 mm
03:45 AM 35.6°F2.0°C 32.0°F0.0°C 84% 3.5 mph N5.6 kmh N 5.8 mph9.3 kmh 29.39 in995.3 mb 0.00 in0.0 mm 0.00 in0.0 mm 0.00 in0.0 mm
03:50 AM 35.4°F1.9°C 32.0°F0.0°C 84% 3.1 mph N5.0 kmh N 5.8 mph9.3 kmh 29.39 in995.3 mb 0.00 in0.0 mm 0.00 in0.0 mm 0.00 in0.0 mm
03:55 AM 35.1°F1.7°C 30.2°F-1.0°C 84% 2.5 mph N4.0 kmh N 3.6 mph5.8 kmh 29.39 in995.3 mb 0.00 in0.0 mm 0.00 in0.0 mm 0.00 in0.0 mm
04:00 AM 34.9°F1.6°C 30.2°F-1.0°C 84% 2.6 mph N4.2 kmh N 3.6 mph5.8 kmh 29.41 in995.9 mb 0.00 in0.0 mm 0.00 in0.0 mm 0.00 in0.0 mm
04:05 AM 34.5°F1.4°C 30.2°F-1.0°C 84% 2.6 mph N4.2 kmh N 3.1 mph5.0 kmh 29.41 in995.9 mb 0.00 in0.0 mm 0.00 in0.0 mm 0.00 in0.0 mm
04:10 AM 34.3°F1.3°C 30.2°F-1.0°C 84% 2.3 mph N3.7 kmh N 3.6 mph5.8 kmh 29.41 in995.9 mb 0.00 in0.0 mm 0.00 in0.0 mm 0.00 in0.0 mm
04:15 AM 34.3°F1.3°C 30.2°F-1.0°C 84% 2.3 mph N3.7 kmh N 3.8 mph6.1 kmh 29.41 in995.9 mb 0.00 in0.0 mm 0.00 in0.0 mm 0.00 in0.0 mm
04:20 AM 34.2°F1.2°C 30.2°F-1.0°C 84% 2.0 mph N3.2 kmh N 3.8 mph6.1 kmh 29.41 in995.9 mb 0.00 in0.0 mm 0.00 in0.0 mm 0.00 in0.0 mm
04:25 AM 34.0°F1.1°C 30.2°F-1.0°C 84% 1.5 mph N2.4 kmh N 2.7 mph4.3 kmh 29.41 in995.9 mb 0.00 in0.0 mm 0.00 in0.0 mm 0.00 in0.0 mm
04:30 AM 34.0°F1.1°C 30.2°F-1.0°C 84% 2.0 mph N3.2 kmh N 2.9 mph4.7 kmh 29.41 in995.9 mb 0.00 in0.0 mm 0.00 in0.0 mm 0.00 in0.0 mm
04:35 AM 33.8°F1.0°C 30.2°F-1.0°C 84% 2.6 mph N4.2 kmh N 4.0 mph6.4 kmh 29.41 in995.9 mb 0.00 in0.0 mm 0.00 in0.0 mm 0.00 in0.0 mm
04:40 AM 33.8°F1.0°C 30.2°F-1.0°C 84% 2.7 mph N4.3 kmh N 4.0 mph6.4 kmh 29.41 in995.9 mb 0.00 in0.0 mm 0.00 in0.0 mm 0.00 in0.0 mm
04:45 AM 33.8°F1.0°C 30.2°F-1.0°C 84% 2.7 mph N4.3 kmh N 5.4 mph8.7 kmh 29.41 in995.9 mb 0.00 in0.0 mm 0.00 in0.0 mm 0.00 in0.0 mm
04:50 AM 33.8°F1.0°C 30.2°F-1.0°C 84% 3.7 mph N6.0 kmh N 5.8 mph9.3 kmh 29.41 in995.9 mb 0.00 in0.0 mm 0.00 in0.0 mm 0.00 in0.0 mm
04:55 AM 34.0°F1.1°C 30.2°F-1.0°C 84% 3.9 mph N6.3 kmh N 5.8 mph9.3 kmh 29.41 in995.9 mb 0.00 in0.0 mm 0.00 in0.0 mm 0.00 in0.0 mm
05:00 AM 34.2°F1.2°C 30.2°F-1.0°C 84% 4.0 mph N6.4 kmh N 5.6 mph9.0 kmh 29.41 in995.9 mb 0.00 in0.0 mm 0.00 in0.0 mm 0.00 in0.0 mm
05:05 AM 34.2°F1.2°C 30.2°F-1.0°C 83% 4.1 mph N6.6 kmh N 5.6 mph9.0 kmh 29.41 in995.9 mb 0.00 in0.0 mm 0.00 in0.0 mm 0.00 in0.0 mm
05:10 AM 34.0°F1.1°C 30.2°F-1.0°C 83% 4.0 mph N6.4 kmh N 6.3 mph10.1 kmh 29.41 in995.9 mb 0.00 in0.0 mm 0.00 in0.0 mm 0.00 in0.0 mm
05:15 AM 34.0°F1.1°C 30.2°F-1.0°C 83% 3.9 mph N6.3 kmh N 6.3 mph10.1 kmh 29.41 in995.9 mb 0.00 in0.0 mm 0.00 in0.0 mm 0.00 in0.0 mm
05:20 AM 34.0°F1.1°C 30.2°F-1.0°C 83% 4.3 mph N6.9 kmh N 6.3 mph10.1 kmh 29.41 in995.9 mb 0.00 in0.0 mm 0.00 in0.0 mm 0.00 in0.0 mm
05:25 AM 33.8°F1.0°C 30.2°F-1.0°C 83% 4.1 mph N6.6 kmh N 6.0 mph9.7 kmh 29.41 in995.9 mb 0.00 in0.0 mm 0.00 in0.0 mm 0.00 in0.0 mm
05:30 AM 33.4°F0.8°C 30.2°F-1.0°C 83% 2.7 mph N4.3 kmh N 4.7 mph7.6 kmh 29.41 in995.9 mb 0.00 in0.0 mm 0.00 in0.0 mm 0.00 in0.0 mm
05:35 AM 33.4°F0.8°C 30.2°F-1.0°C 83% 2.1 mph N3.4 kmh N 4.7 mph7.6 kmh 29.41 in995.9 mb 0.00 in0.0 mm 0.00 in0.0 mm 0.00 in0.0 mm
05:40 AM 33.3°F0.7°C 28.4°F-2.0°C 83% 1.4 mph N2.3 kmh N 2.7 mph4.3 kmh 29.41 in995.9 mb 0.00 in0.0 mm 0.00 in0.0 mm 0.00 in0.0 mm
05:45 AM 32.9°F0.5°C 28.4°F-2.0°C 83% 0.9 mph N1.4 kmh N 2.7 mph4.3 kmh 29.41 in995.9 mb 0.00 in0.0 mm 0.00 in0.0 mm 0.00 in0.0 mm
05:50 AM 32.7°F0.4°C 28.4°F-2.0°C 83% 1.2 mph N1.9 kmh N 2.7 mph4.3 kmh 29.41 in995.9 mb 0.00 in0.0 mm 0.00 in0.0 mm 0.00 in0.0 mm
05:55 AM 32.5°F0.3°C 28.4°F-2.0°C 83% 1.7 mph N2.7 kmh N 2.7 mph4.3 kmh 29.41 in995.9 mb 0.00 in0.0 mm 0.00 in0.0 mm 0.00 in0.0 mm
06:00 AM 32.4°F0.2°C 28.4°F-2.0°C 83% 1.9 mph N3.1 kmh N 4.3 mph6.9 kmh 29.39 in995.3 mb 0.00 in0.0 mm 0.00 in0.0 mm 0.00 in0.0 mm
06:05 AM 32.5°F0.3°C 28.4°F-2.0°C 84% 2.1 mph N3.4 kmh N 4.3 mph6.9 kmh 29.39 in995.3 mb 0.00 in0.0 mm 0.00 in0.0 mm 0.00 in0.0 mm
06:10 AM 32.5°F0.3°C 28.4°F-2.0°C 83% 2.6 mph N4.2 kmh N 3.4 mph5.5 kmh 29.39 in995.3 mb 0.00 in0.0 mm 0.00 in0.0 mm 0.00 in0.0 mm
06:15 AM 32.4°F0.2°C 28.4°F-2.0°C 83% 1.9 mph N3.1 kmh N 3.1 mph5.0 kmh 29.41 in995.9 mb 0.00 in0.0 mm 0.00 in0.0 mm 0.00 in0.0 mm
06:20 AM 32.2°F0.1°C 28.4°F-2.0°C 83% 0.9 mph N1.4 kmh N 2.7 mph4.3 kmh 29.41 in995.9 mb 0.00 in0.0 mm 0.00 in0.0 mm 0.00 in0.0 mm
06:25 AM 32.0°F0.0°C 26.6°F-3.0°C 83% 0.3 mph N0.5 kmh N 2.0 mph3.2 kmh 29.41 in995.9 mb 0.00 in0.0 mm 0.00 in0.0 mm 0.00 in0.0 mm
06:30 AM 31.8°F-0.1°C 26.6°F-3.0°C 83% 0.5 mph N0.8 kmh N 1.6 mph2.6 kmh 29.41 in995.9 mb 0.00 in0.0 mm 0.00 in0.0 mm 0.00 in0.0 mm
06:35 AM 31.6°F-0.2°C 26.6°F-3.0°C 83% 1.1 mph N1.8 kmh N 2.5 mph4.0 kmh 29.41 in995.9 mb 0.00 in0.0 mm 0.00 in0.0 mm 0.00 in0.0 mm
06:40 AM 31.3°F-0.4°C 24.8°F-4.0°C 83% 0.9 mph N1.4 kmh N 2.5 mph4.0 kmh 29.41 in995.9 mb 0.00 in0.0 mm 0.00 in0.0 mm 0.00 in0.0 mm
06:45 AM 31.1°F-0.5°C 24.8°F-4.0°C 83% 0.4 mph N0.6 kmh N 2.5 mph4.0 kmh 29.41 in995.9 mb 0.00 in0.0 mm 0.00 in0.0 mm 0.00 in0.0 mm
06:50 AM 31.3°F-0.4°C 24.8°F-4.0°C 83% 0.3 mph NNE0.5 kmh NNE 1.6 mph2.6 kmh 29.41 in995.9 mb 0.00 in0.0 mm 0.00 in0.0 mm 0.00 in0.0 mm
06:55 AM 31.1°F-0.5°C 24.8°F-4.0°C 83% 0.4 mph NNE0.6 kmh NNE 1.6 mph2.6 kmh 29.41 in995.9 mb 0.00 in0.0 mm 0.00 in0.0 mm 0.00 in0.0 mm
07:00 AM 31.1°F-0.5°C 24.8°F-4.0°C 84% 0.3 mph N0.5 kmh N 1.6 mph2.6 kmh 29.41 in995.9 mb 0.00 in0.0 mm 0.00 in0.0 mm 0.00 in0.0 mm
07:05 AM 31.1°F-0.5°C 24.8°F-4.0°C 84% 0.1 mph N0.2 kmh N 1.6 mph2.6 kmh 29.41 in995.9 mb 0.00 in0.0 mm 0.00 in0.0 mm 0.00 in0.0 mm
07:10 AM 30.9°F-0.6°C 24.8°F-4.0°C 84% Calm Calm -- 29.41 in995.9 mb 0.00 in0.0 mm 0.00 in0.0 mm 0.00 in0.0 mm
07:15 AM 30.6°F-0.8°C 24.8°F-4.0°C 84% Calm Calm -- 29.41 in995.9 mb 0.00 in0.0 mm 0.00 in0.0 mm 0.00 in0.0 mm
07:20 AM 30.7°F-0.7°C 24.8°F-4.0°C 84% 0.2 mph ENE0.3 kmh ENE 1.6 mph2.6 kmh 29.41 in995.9 mb 0.00 in0.0 mm 0.00 in0.0 mm 0.00 in0.0 mm
07:25 AM 30.6°F-0.8°C 24.8°F-4.0°C 84% 0.2 mph ENE0.3 kmh ENE 1.6 mph2.6 kmh 29.41 in995.9 mb 0.00 in0.0 mm 0.00 in0.0 mm 0.00 in0.0 mm
07:30 AM 30.6°F-0.8°C 24.8°F-4.0°C 84% Calm Calm -- 29.41 in995.9 mb 0.00 in0.0 mm 0.00 in0.0 mm 0.00 in0.0 mm
07:35 AM 30.4°F-0.9°C 24.8°F-4.0°C 84% Calm Calm -- 29.41 in995.9 mb 0.00 in0.0 mm 0.00 in0.0 mm 0.00 in0.0 mm
07:40 AM 30.2°F-1.0°C 24.8°F-4.0°C 84% Calm Calm -- 29.41 in995.9 mb 0.00 in0.0 mm 0.00 in0.0 mm 0.00 in0.0 mm
07:45 AM 30.2°F-1.0°C 24.8°F-4.0°C 84% Calm Calm -- 29.41 in995.9 mb 0.00 in0.0 mm 0.00 in0.0 mm 0.00 in0.0 mm
07:50 AM 30.2°F-1.0°C 24.8°F-4.0°C 84% Calm Calm -- 29.41 in995.9 mb 0.00 in0.0 mm 0.00 in0.0 mm 0.00 in0.0 mm
07:55 AM 30.2°F-1.0°C 24.8°F-4.0°C 84% Calm Calm -- 29.41 in995.9 mb 0.00 in0.0 mm 0.00 in0.0 mm 0.00 in0.0 mm
08:00 AM 30.2°F-1.0°C 24.8°F-4.0°C 84% Calm Calm -- 29.41 in995.9 mb 0.00 in0.0 mm 0.00 in0.0 mm 0.00 in0.0 mm
08:05 AM 30.2°F-1.0°C 24.8°F-4.0°C 84% Calm Calm -- 29.41 in995.9 mb 0.00 in0.0 mm 0.00 in0.0 mm 0.00 in0.0 mm
08:10 AM 30.4°F-0.9°C 24.8°F-4.0°C 84% Calm Calm -- 29.41 in995.9 mb 0.00 in0.0 mm 0.00 in0.0 mm 0.00 in0.0 mm
08:15 AM 30.4°F-0.9°C 24.8°F-4.0°C 84% Calm Calm -- 29.41 in995.9 mb 0.00 in0.0 mm 0.00 in0.0 mm 0.00 in0.0 mm
08:20 AM 30.4°F-0.9°C 24.8°F-4.0°C 84% Calm Calm -- 29.41 in995.9 mb 0.00 in0.0 mm 0.00 in0.0 mm 0.00 in0.0 mm
08:25 AM 30.6°F-0.8°C 24.8°F-4.0°C 84% Calm Calm -- 29.41 in995.9 mb 0.00 in0.0 mm 0.00 in0.0 mm 0.00 in0.0 mm
08:30 AM 30.7°F-0.7°C 24.8°F-4.0°C 84% Calm Calm -- 29.41 in995.9 mb 0.00 in0.0 mm 0.00 in0.0 mm 0.00 in0.0 mm
08:35 AM 30.9°F-0.6°C 24.8°F-4.0°C 84% Calm Calm -- 29.41 in995.9 mb 0.00 in0.0 mm 0.00 in0.0 mm 0.00 in0.0 mm
08:40 AM 31.1°F-0.5°C 26.6°F-3.0°C 85% Calm Calm -- 29.41 in995.9 mb 0.00 in0.0 mm 0.00 in0.0 mm 0.00 in0.0 mm
08:45 AM 31.3°F-0.4°C 26.6°F-3.0°C 85% 0.1 mph ENE0.2 kmh ENE 2.0 mph3.2 kmh 29.41 in995.9 mb 0.00 in0.0 mm 0.00 in0.0 mm 0.00 in0.0 mm
08:50 AM 31.3°F-0.4°C 26.6°F-3.0°C 85% 0.1 mph ENE0.2 kmh ENE 2.0 mph3.2 kmh 29.41 in995.9 mb 0.00 in0.0 mm 0.00 in0.0 mm 0.00 in0.0 mm
08:55 AM 31.5°F-0.3°C 26.6°F-3.0°C 85% 0.5 mph NNE0.8 kmh NNE 2.2 mph3.5 kmh 29.41 in995.9 mb 0.00 in0.0 mm 0.00 in0.0 mm 0.00 in0.0 mm
09:00 AM 31.8°F-0.1°C 26.6°F-3.0°C 85% 1.7 mph NNE2.7 kmh NNE 2.9 mph4.7 kmh 29.41 in995.9 mb 0.00 in0.0 mm 0.00 in0.0 mm 0.00 in0.0 mm
09:05 AM 31.8°F-0.1°C 26.6°F-3.0°C 85% 1.0 mph NNE1.6 kmh NNE 2.9 mph4.7 kmh 29.41 in995.9 mb 0.00 in0.0 mm 0.00 in0.0 mm 0.00 in0.0 mm
09:10 AM 32.0°F0.0°C 26.6°F-3.0°C 85% Calm Calm -- 29.41 in995.9 mb 0.00 in0.0 mm 0.00 in0.0 mm 0.00 in0.0 mm
09:15 AM 32.2°F0.1°C 28.4°F-2.0°C 85% Calm Calm -- 29.41 in995.9 mb 0.00 in0.0 mm 0.00 in0.0 mm 0.00 in0.0 mm
09:30 AM 32.7°F0.4°C 30.2°F-1.0°C 85% Calm Calm -- 29.41 in995.9 mb 0.00 in0.0 mm 0.00 in0.0 mm 0.00 in0.0 mm
09:35 AM 32.9°F0.5°C 30.2°F-1.0°C 85% Calm Calm -- 29.41 in995.9 mb 0.00 in0.0 mm 0.00 in0.0 mm 0.00 in0.0 mm
09:40 AM 32.9°F0.5°C 30.2°F-1.0°C 85% Calm Calm -- 29.41 in995.9 mb 0.00 in0.0 mm 0.00 in0.0 mm 0.00 in0.0 mm
09:45 AM 32.9°F0.5°C 30.2°F-1.0°C 85% Calm Calm -- 29.41 in995.9 mb 0.00 in0.0 mm 0.00 in0.0 mm 0.00 in0.0 mm
09:50 AM 33.3°F0.7°C 30.2°F-1.0°C 85% Calm Calm -- 29.41 in995.9 mb 0.00 in0.0 mm 0.00 in0.0 mm 0.00 in0.0 mm
09:55 AM 33.4°F0.8°C 30.2°F-1.0°C 85% 0.4 mph N0.6 kmh N 1.6 mph2.6 kmh 29.41 in995.9 mb 0.00 in0.0 mm 0.00 in0.0 mm 0.00 in0.0 mm
10:00 AM 33.6°F0.9°C 30.2°F-1.0°C 85% 0.5 mph N0.8 kmh N 1.6 mph2.6 kmh 29.41 in995.9 mb 0.00 in0.0 mm 0.00 in0.0 mm 0.00 in0.0 mm
10:05 AM 33.8°F1.0°C 30.2°F-1.0°C 85% 0.1 mph N0.2 kmh N 0.9 mph1.4 kmh 29.41 in995.9 mb 0.00 in0.0 mm 0.00 in0.0 mm 0.00 in0.0 mm
10:10 AM 34.0°F1.1°C 30.2°F-1.0°C 85% Calm Calm -- 29.41 in995.9 mb 0.00 in0.0 mm 0.00 in0.0 mm 0.00 in0.0 mm
10:15 AM 34.2°F1.2°C 30.2°F-1.0°C 85% Calm Calm -- 29.41 in995.9 mb 0.00 in0.0 mm 0.00 in0.0 mm 0.00 in0.0 mm
10:20 AM 34.3°F1.3°C 30.2°F-1.0°C 85% 0.1 mph ENE0.2 kmh ENE 1.1 mph1.8 kmh 29.41 in995.9 mb 0.00 in0.0 mm 0.00 in0.0 mm 0.00 in0.0 mm
10:25 AM 34.7°F1.5°C 32.0°F0.0°C 85% 0.3 mph NNE0.5 kmh NNE 2.2 mph3.5 kmh 29.41 in995.9 mb 0.00 in0.0 mm 0.00 in0.0 mm 0.00 in0.0 mm
10:30 AM 35.1°F1.7°C 32.0°F0.0°C 85% 0.9 mph N1.4 kmh N 2.9 mph4.7 kmh 29.41 in995.9 mb 0.00 in0.0 mm 0.00 in0.0 mm 0.00 in0.0 mm
10:35 AM 35.2°F1.8°C 32.0°F0.0°C 85% 1.5 mph N2.4 kmh N 2.9 mph4.7 kmh 29.41 in995.9 mb 0.00 in0.0 mm 0.00 in0.0 mm 0.00 in0.0 mm
10:40 AM 35.2°F1.8°C 32.0°F0.0°C 85% 1.3 mph N2.1 kmh N 2.7 mph4.3 kmh 29.41 in995.9 mb 0.00 in0.0 mm 0.00 in0.0 mm 0.00 in0.0 mm
10:45 AM 35.6°F2.0°C 32.0°F0.0°C 84% 1.0 mph N1.6 kmh N 2.5 mph4.0 kmh 29.39 in995.3 mb 0.00 in0.0 mm 0.00 in0.0 mm 0.00 in0.0 mm
10:50 AM 35.8°F2.1°C 32.0°F0.0°C 84% 0.8 mph N1.3 kmh N 2.5 mph4.0 kmh 29.39 in995.3 mb 0.00 in0.0 mm 0.00 in0.0 mm 0.00 in0.0 mm
10:55 AM 36.0°F2.2°C 32.0°F0.0°C 84% 0.4 mph N0.6 kmh N 2.2 mph3.5 kmh 29.39 in995.3 mb 0.00 in0.0 mm 0.00 in0.0 mm 0.00 in0.0 mm
11:00 AM 36.9°F2.7°C 33.8°F1.0°C 84% 1.0 mph N1.6 kmh N 2.2 mph3.5 kmh 29.39 in995.3 mb 0.00 in0.0 mm 0.00 in0.0 mm 0.00 in0.0 mm
11:05 AM 38.3°F3.5°C 33.8°F1.0°C 83% 1.3 mph N2.1 kmh N 2.7 mph4.3 kmh 29.39 in995.3 mb 0.00 in0.0 mm 0.00 in0.0 mm 0.00 in0.0 mm
11:10 AM 39.2°F4.0°C 33.8°F1.0°C 83% 1.3 mph N2.1 kmh N 2.7 mph4.3 kmh 29.39 in995.3 mb 0.00 in0.0 mm 0.00 in0.0 mm 0.00 in0.0 mm
11:15 AM 40.5°F4.7°C 35.6°F2.0°C 83% 0.9 mph N1.4 kmh N 2.5 mph4.0 kmh 29.39 in995.3 mb 0.00 in0.0 mm 0.00 in0.0 mm 0.00 in0.0 mm
11:20 AM 41.5°F5.3°C 37.4°F3.0°C 82% 0.9 mph N1.4 kmh N 2.5 mph4.0 kmh 29.39 in995.3 mb 0.00 in0.0 mm 0.00 in0.0 mm 0.00 in0.0 mm
11:25 AM 41.7°F5.4°C 37.4°F3.0°C 81% 1.5 mph N2.4 kmh N 2.7 mph4.3 kmh 29.39 in995.3 mb 0.00 in0.0 mm 0.00 in0.0 mm 0.00 in0.0 mm
11:30 AM 41.9°F5.5°C 37.4°F3.0°C 81% 1.0 mph N1.6 kmh N 2.7 mph4.3 kmh 29.39 in995.3 mb 0.00 in0.0 mm 0.00 in0.0 mm 0.00 in0.0 mm
11:35 AM 42.1°F5.6°C 37.4°F3.0°C 81% 0.4 mph N0.6 kmh N 1.6 mph2.6 kmh 29.39 in995.3 mb 0.00 in0.0 mm 0.00 in0.0 mm 0.00 in0.0 mm
11:40 AM 41.9°F5.5°C 37.4°F3.0°C 80% 0.4 mph N0.6 kmh N 1.6 mph2.6 kmh 29.39 in995.3 mb 0.00 in0.0 mm 0.00 in0.0 mm 0.00 in0.0 mm
11:45 AM 41.5°F5.3°C 37.4°F3.0°C 80% 0.8 mph N1.3 kmh N 2.2 mph3.5 kmh 29.39 in995.3 mb 0.00 in0.0 mm 0.00 in0.0 mm 0.00 in0.0 mm
11:50 AM 42.3°F5.7°C 37.4°F3.0°C 80% 1.5 mph N2.4 kmh N 2.2 mph3.5 kmh 29.39 in995.3 mb 0.00 in0.0 mm 0.00 in0.0 mm 0.00 in0.0 mm
11:55 AM 43.3°F6.3°C 37.4°F3.0°C 80% 1.9 mph N3.1 kmh N 2.9 mph4.7 kmh 29.39 in995.3 mb 0.00 in0.0 mm 0.00 in0.0 mm 0.00 in0.0 mm
12:00 PM 43.7°F6.5°C 37.4°F3.0°C 79% 1.7 mph N2.7 kmh N 3.4 mph5.5 kmh 29.39 in995.3 mb 0.00 in0.0 mm 0.00 in0.0 mm 0.00 in0.0 mm
12:05 PM 44.6°F7.0°C 39.2°F4.0°C 79% 1.2 mph N1.9 kmh N 3.4 mph5.5 kmh 29.39 in995.3 mb 0.00 in0.0 mm 0.00 in0.0 mm 0.00 in0.0 mm
12:10 PM 45.1°F7.3°C 39.2°F4.0°C 79% 0.7 mph N1.1 kmh N 2.5 mph4.0 kmh 29.39 in995.3 mb 0.00 in0.0 mm 0.00 in0.0 mm 0.00 in0.0 mm
12:15 PM 46.8°F8.2°C 41.0°F5.0°C 78% 0.6 mph N1.0 kmh N 2.7 mph4.3 kmh 29.36 in994.2 mb 0.00 in0.0 mm 0.00 in0.0 mm 0.00 in0.0 mm
12:20 PM 46.9°F8.3°C 41.0°F5.0°C 78% 0.6 mph N1.0 kmh N 2.7 mph4.3 kmh 29.36 in994.2 mb 0.00 in0.0 mm 0.00 in0.0 mm 0.00 in0.0 mm
12:25 PM 46.8°F8.2°C 41.0°F5.0°C 77% 0.9 mph N1.4 kmh N 2.7 mph4.3 kmh 29.36 in994.2 mb 0.00 in0.0 mm 0.00 in0.0 mm 0.00 in0.0 mm
12:30 PM 46.8°F8.2°C 41.0°F5.0°C 77% 1.7 mph N2.7 kmh N 2.7 mph4.3 kmh 29.36 in994.2 mb 0.00 in0.0 mm 0.00 in0.0 mm 0.00 in0.0 mm
12:35 PM 46.2°F7.9°C 39.2°F4.0°C 77% 2.0 mph N3.2 kmh N 4.0 mph6.4 kmh 29.36 in994.2 mb 0.00 in0.0 mm 0.00 in0.0 mm 0.00 in0.0 mm
12:40 PM 45.3°F7.4°C 39.2°F4.0°C 77% 2.0 mph N3.2 kmh N 4.0 mph6.4 kmh 29.36 in994.2 mb 0.00 in0.0 mm 0.00 in0.0 mm 0.00 in0.0 mm
12:45 PM 45.1°F7.3°C 39.2°F4.0°C 77% 1.8 mph N2.9 kmh N 3.4 mph5.5 kmh 29.36 in994.2 mb 0.00 in0.0 mm 0.00 in0.0 mm 0.00 in0.0 mm
12:50 PM 45.3°F7.4°C 39.2°F4.0°C 78% 1.5 mph N2.4 kmh N 3.4 mph5.5 kmh 29.36 in994.2 mb 0.00 in0.0 mm 0.00 in0.0 mm 0.00 in0.0 mm
12:55 PM 43.9°F6.6°C 37.4°F3.0°C 78% 0.7 mph N1.1 kmh N 2.5 mph4.0 kmh 29.36 in994.2 mb 0.00 in0.0 mm 0.00 in0.0 mm 0.00 in0.0 mm
01:00 PM 43.7°F6.5°C 37.4°F3.0°C 78% 0.8 mph N1.3 kmh N 2.9 mph4.7 kmh 29.36 in994.2 mb 0.00 in0.0 mm 0.00 in0.0 mm 0.00 in0.0 mm
01:05 PM 43.3°F6.3°C 37.4°F3.0°C 78% 0.8 mph N1.3 kmh N 2.9 mph4.7 kmh 29.36 in994.2 mb 0.00 in0.0 mm 0.00 in0.0 mm 0.00 in0.0 mm
01:10 PM 43.2°F6.2°C 37.4°F3.0°C 78% 0.3 mph N0.5 kmh N 2.0 mph3.2 kmh 29.36 in994.2 mb 0.00 in0.0 mm 0.00 in0.0 mm 0.00 in0.0 mm
01:15 PM 43.2°F6.2°C 37.4°F3.0°C 78% 0.5 mph N0.8 kmh N 2.7 mph4.3 kmh 29.36 in994.2 mb 0.00 in0.0 mm 0.00 in0.0 mm 0.00 in0.0 mm
01:20 PM 43.5°F6.4°C 37.4°F3.0°C 78% 0.9 mph N1.4 kmh N 4.3 mph6.9 kmh 29.36 in994.2 mb 0.00 in0.0 mm 0.00 in0.0 mm 0.00 in0.0 mm
01:25 PM 43.7°F6.5°C 37.4°F3.0°C 78% 1.1 mph N1.8 kmh N 4.3 mph6.9 kmh 29.36 in994.2 mb 0.00 in0.0 mm 0.00 in0.0 mm 0.00 in0.0 mm
01:30 PM 43.2°F6.2°C 37.4°F3.0°C 78% 1.9 mph N3.1 kmh N 4.3 mph6.9 kmh 29.36 in994.2 mb 0.00 in0.0 mm 0.00 in0.0 mm 0.00 in0.0 mm
01:35 PM 43.3°F6.3°C 37.4°F3.0°C 78% 1.4 mph N2.3 kmh N 2.9 mph4.7 kmh 29.36 in994.2 mb 0.00 in0.0 mm 0.00 in0.0 mm 0.00 in0.0 mm
01:40 PM 43.3°F6.3°C 37.4°F3.0°C 78% 1.2 mph N1.9 kmh N 3.1 mph5.0 kmh 29.36 in994.2 mb 0.00 in0.0 mm 0.00 in0.0 mm 0.00 in0.0 mm
01:45 PM 43.2°F6.2°C 37.4°F3.0°C 78% 1.8 mph N2.9 kmh N 4.3 mph6.9 kmh 29.36 in994.2 mb 0.00 in0.0 mm 0.00 in0.0 mm 0.00 in0.0 mm
01:50 PM 42.8°F6.0°C 37.4°F3.0°C 78% 2.5 mph N4.0 kmh N 4.3 mph6.9 kmh 29.36 in994.2 mb 0.00 in0.0 mm 0.00 in0.0 mm 0.00 in0.0 mm
01:55 PM 42.8°F6.0°C 37.4°F3.0°C 78% 3.0 mph N4.8 kmh N 4.3 mph6.9 kmh 29.36 in994.2 mb 0.00 in0.0 mm 0.00 in0.0 mm 0.00 in0.0 mm
02:00 PM 42.8°F6.0°C 37.4°F3.0°C 78% 3.1 mph N5.0 kmh N 4.3 mph6.9 kmh 29.33 in993.2 mb 0.00 in0.0 mm 0.00 in0.0 mm 0.00 in0.0 mm
02:05 PM 43.0°F6.1°C 37.4°F3.0°C 78% 3.1 mph N5.0 kmh N 4.3 mph6.9 kmh 29.33 in993.2 mb 0.00 in0.0 mm 0.00 in0.0 mm 0.00 in0.0 mm
02:10 PM 42.8°F6.0°C 37.4°F3.0°C 78% 2.0 mph N3.2 kmh N 4.0 mph6.4 kmh 29.33 in993.2 mb 0.00 in0.0 mm 0.00 in0.0 mm 0.00 in0.0 mm
02:15 PM 42.8°F6.0°C 37.4°F3.0°C 78% 2.3 mph N3.7 kmh N 4.3 mph6.9 kmh 29.33 in993.2 mb 0.00 in0.0 mm 0.00 in0.0 mm 0.00 in0.0 mm
02:20 PM 42.6°F5.9°C 37.4°F3.0°C 78% 3.0 mph N4.8 kmh N 4.3 mph6.9 kmh 29.33 in993.2 mb 0.00 in0.0 mm 0.00 in0.0 mm 0.00 in0.0 mm
02:25 PM 42.4°F5.8°C 37.4°F3.0°C 78% 2.3 mph N3.7 kmh N 3.8 mph6.1 kmh 29.33 in993.2 mb 0.00 in0.0 mm 0.00 in0.0 mm 0.00 in0.0 mm
02:30 PM 42.4°F5.8°C 37.4°F3.0°C 78% 2.5 mph N4.0 kmh N 4.0 mph6.4 kmh 29.33 in993.2 mb 0.00 in0.0 mm 0.00 in0.0 mm 0.00 in0.0 mm
02:35 PM 42.3°F5.7°C 35.6°F2.0°C 78% 2.5 mph N4.0 kmh N 4.0 mph6.4 kmh 29.33 in993.2 mb 0.00 in0.0 mm 0.00 in0.0 mm 0.00 in0.0 mm
02:40 PM 42.3°F5.7°C 35.6°F2.0°C 78% 2.3 mph N3.7 kmh N 3.6 mph5.8 kmh 29.33 in993.2 mb 0.00 in0.0 mm 0.00 in0.0 mm 0.00 in0.0 mm
02:45 PM 41.9°F5.5°C 35.6°F2.0°C 78% 2.1 mph N3.4 kmh N 3.6 mph5.8 kmh 29.33 in993.2 mb 0.00 in0.0 mm 0.00 in0.0 mm 0.00 in0.0 mm
02:50 PM 41.7°F5.4°C 35.6°F2.0°C 78% 2.5 mph N4.0 kmh N 3.6 mph5.8 kmh 29.33 in993.2 mb 0.00 in0.0 mm 0.00 in0.0 mm 0.00 in0.0 mm
02:55 PM 41.5°F5.3°C 35.6°F2.0°C 78% 2.5 mph N4.0 kmh N 3.8 mph6.1 kmh 29.33 in993.2 mb 0.00 in0.0 mm 0.00 in0.0 mm 0.00 in0.0 mm
03:00 PM 41.2°F5.1°C 35.6°F2.0°C 79% 3.2 mph N5.1 kmh N 3.8 mph6.1 kmh 29.33 in993.2 mb 0.00 in0.0 mm 0.00 in0.0 mm 0.00 in0.0 mm
03:05 PM 40.8°F4.9°C 35.6°F2.0°C 79% 3.3 mph N5.3 kmh N 3.6 mph5.8 kmh 29.33 in993.2 mb 0.00 in0.0 mm 0.00 in0.0 mm 0.00 in0.0 mm
03:10 PM 40.6°F4.8°C 33.8°F1.0°C 79% 2.8 mph N4.5 kmh N 3.6 mph5.8 kmh 29.33 in993.2 mb 0.00 in0.0 mm 0.00 in0.0 mm 0.00 in0.0 mm
03:15 PM 40.3°F4.6°C 33.8°F1.0°C 79% 1.7 mph N2.7 kmh N 3.6 mph5.8 kmh 29.33 in993.2 mb 0.00 in0.0 mm 0.00 in0.0 mm 0.00 in0.0 mm
03:20 PM 39.9°F4.4°C 33.8°F1.0°C 79% 0.8 mph N1.3 kmh N 2.0 mph3.2 kmh 29.33 in993.2 mb 0.00 in0.0 mm 0.00 in0.0 mm 0.00 in0.0 mm
03:25 PM 39.9°F4.4°C 33.8°F1.0°C 79% 0.5 mph NNE0.8 kmh NNE 2.0 mph3.2 kmh 29.33 in993.2 mb 0.00 in0.0 mm 0.00 in0.0 mm 0.00 in0.0 mm
03:30 PM 39.0°F3.9°C 33.8°F1.0°C 79% 0.1 mph ENE0.2 kmh ENE 1.3 mph2.1 kmh 29.33 in993.2 mb 0.00 in0.0 mm 0.00 in0.0 mm 0.00 in0.0 mm
03:35 PM 38.8°F3.8°C 33.8°F1.0°C 79% Calm Calm -- 29.33 in993.2 mb 0.00 in0.0 mm 0.00 in0.0 mm 0.00 in0.0 mm
03:40 PM 38.5°F3.6°C 33.8°F1.0°C 79% Calm Calm -- 29.33 in993.2 mb 0.00 in0.0 mm 0.00 in0.0 mm 0.00 in0.0 mm
03:45 PM 38.1°F3.4°C 33.8°F1.0°C 80% Calm Calm -- 29.33 in993.2 mb 0.00 in0.0 mm 0.00 in0.0 mm 0.00 in0.0 mm
03:50 PM 37.9°F3.3°C 33.8°F1.0°C 80% 0.5 mph ENE0.8 kmh ENE 1.6 mph2.6 kmh 29.33 in993.2 mb 0.00 in0.0 mm 0.00 in0.0 mm 0.00 in0.0 mm
03:55 PM 37.6°F3.1°C 32.0°F0.0°C 80% 0.4 mph ENE0.6 kmh ENE 1.6 mph2.6 kmh 29.33 in993.2 mb 0.00 in0.0 mm 0.00 in0.0 mm 0.00 in0.0 mm
04:00 PM 37.4°F3.0°C 32.0°F0.0°C 80% 0.2 mph ENE0.3 kmh ENE 1.3 mph2.1 kmh 29.33 in993.2 mb 0.00 in0.0 mm 0.00 in0.0 mm 0.00 in0.0 mm
04:05 PM 37.2°F2.9°C 32.0°F0.0°C 80% 0.4 mph ENE0.6 kmh ENE 2.0 mph3.2 kmh 29.33 in993.2 mb 0.00 in0.0 mm 0.00 in0.0 mm 0.00 in0.0 mm
04:10 PM 36.9°F2.7°C 32.0°F0.0°C 80% 0.7 mph ENE1.1 kmh ENE 2.0 mph3.2 kmh 29.33 in993.2 mb 0.00 in0.0 mm 0.00 in0.0 mm 0.00 in0.0 mm
04:15 PM 36.7°F2.6°C 32.0°F0.0°C 80% 1.0 mph ENE1.6 kmh ENE 2.2 mph3.5 kmh 29.33 in993.2 mb 0.00 in0.0 mm 0.00 in0.0 mm 0.00 in0.0 mm
04:20 PM 36.7°F2.6°C 32.0°F0.0°C 80% 1.2 mph ENE1.9 kmh ENE 2.5 mph4.0 kmh 29.33 in993.2 mb 0.00 in0.0 mm 0.00 in0.0 mm 0.00 in0.0 mm
04:30 PM 36.0°F2.2°C 30.2°F-1.0°C 81% 1.8 mph ENE2.9 kmh ENE 2.9 mph4.7 kmh 29.33 in993.2 mb 0.00 in0.0 mm 0.00 in0.0 mm 0.00 in0.0 mm
04:35 PM 36.1°F2.3°C 32.0°F0.0°C 81% 2.2 mph ENE3.5 kmh ENE 2.9 mph4.7 kmh 29.33 in993.2 mb 0.00 in0.0 mm 0.00 in0.0 mm 0.00 in0.0 mm
04:40 PM 36.1°F2.3°C 32.0°F0.0°C 81% 1.5 mph ENE2.4 kmh ENE 2.5 mph4.0 kmh 29.33 in993.2 mb 0.00 in0.0 mm 0.00 in0.0 mm 0.00 in0.0 mm
04:45 PM 36.5°F2.5°C 32.0°F0.0°C 81% 0.6 mph ENE1.0 kmh ENE 2.0 mph3.2 kmh 29.33 in993.2 mb 0.00 in0.0 mm 0.00 in0.0 mm 0.00 in0.0 mm
04:50 PM 36.5°F2.5°C 32.0°F0.0°C 81% 1.1 mph ENE1.8 kmh ENE 2.9 mph4.7 kmh 29.33 in993.2 mb 0.00 in0.0 mm 0.00 in0.0 mm 0.00 in0.0 mm
04:55 PM 36.9°F2.7°C 32.0°F0.0°C 82% 1.8 mph ENE2.9 kmh ENE 3.4 mph5.5 kmh 29.33 in993.2 mb 0.00 in0.0 mm 0.00 in0.0 mm 0.00 in0.0 mm
05:00 PM 36.9°F2.7°C 32.0°F0.0°C 82% 1.3 mph ENE2.1 kmh ENE 3.4 mph5.5 kmh 29.33 in993.2 mb 0.00 in0.0 mm 0.00 in0.0 mm 0.00 in0.0 mm
05:05 PM 36.9°F2.7°C 32.0°F0.0°C 82% 1.1 mph NE1.8 kmh NE 2.7 mph4.3 kmh 29.33 in993.2 mb 0.00 in0.0 mm 0.00 in0.0 mm 0.00 in0.0 mm
05:10 PM 36.9°F2.7°C 32.0°F0.0°C 82% 1.6 mph NE2.6 kmh NE 2.9 mph4.7 kmh 29.33 in993.2 mb 0.00 in0.0 mm 0.00 in0.0 mm 0.00 in0.0 mm
05:15 PM 37.0°F2.8°C 33.8°F1.0°C 82% 3.2 mph ENE5.1 kmh ENE 4.7 mph7.6 kmh 29.33 in993.2 mb 0.00 in0.0 mm 0.00 in0.0 mm 0.00 in0.0 mm
05:20 PM 37.4°F3.0°C 33.8°F1.0°C 82% 3.0 mph ENE4.8 kmh ENE 4.7 mph7.6 kmh 29.33 in993.2 mb 0.00 in0.0 mm 0.00 in0.0 mm 0.00 in0.0 mm
05:25 PM 37.2°F2.9°C 33.8°F1.0°C 82% 2.4 mph NE3.9 kmh NE 4.0 mph6.4 kmh 29.33 in993.2 mb 0.00 in0.0 mm 0.00 in0.0 mm 0.00 in0.0 mm
05:30 PM 37.2°F2.9°C 33.8°F1.0°C 82% 2.7 mph NE4.3 kmh NE 3.6 mph5.8 kmh 29.33 in993.2 mb 0.00 in0.0 mm 0.00 in0.0 mm 0.00 in0.0 mm
05:35 PM 37.0°F2.8°C 33.8°F1.0°C 82% 3.2 mph NE5.1 kmh NE 4.0 mph6.4 kmh 29.33 in993.2 mb 0.00 in0.0 mm 0.00 in0.0 mm 0.00 in0.0 mm
05:40 PM 37.0°F2.8°C 33.8°F1.0°C 82% 3.7 mph NE6.0 kmh NE 4.5 mph7.2 kmh 29.33 in993.2 mb 0.00 in0.0 mm 0.00 in0.0 mm 0.00 in0.0 mm
05:45 PM 36.7°F2.6°C 32.0°F0.0°C 83% 4.0 mph NE6.4 kmh NE 4.9 mph7.9 kmh 29.33 in993.2 mb 0.00 in0.0 mm 0.00 in0.0 mm 0.00 in0.0 mm
05:50 PM 36.7°F2.6°C 32.0°F0.0°C 82% 4.3 mph NE6.9 kmh NE 5.8 mph9.3 kmh 29.33 in993.2 mb 0.00 in0.0 mm 0.00 in0.0 mm 0.00 in0.0 mm
05:55 PM 36.5°F2.5°C 32.0°F0.0°C 82% 3.9 mph NE6.3 kmh NE 5.8 mph9.3 kmh 29.33 in993.2 mb 0.00 in0.0 mm 0.00 in0.0 mm 0.00 in0.0 mm
06:00 PM 36.3°F2.4°C 32.0°F0.0°C 83% 2.8 mph ENE4.5 kmh ENE 3.8 mph6.1 kmh 29.33 in993.2 mb 0.00 in0.0 mm 0.00 in0.0 mm 0.00 in0.0 mm
06:05 PM 36.1°F2.3°C 32.0°F0.0°C 83% 2.9 mph NE4.7 kmh NE 4.0 mph6.4 kmh 29.33 in993.2 mb 0.00 in0.0 mm 0.00 in0.0 mm 0.00 in0.0 mm
06:10 PM 36.0°F2.2°C 32.0°F0.0°C 83% 2.9 mph NE4.7 kmh NE 4.0 mph6.4 kmh 29.33 in993.2 mb 0.00 in0.0 mm 0.00 in0.0 mm 0.00 in0.0 mm
06:15 PM 36.1°F2.3°C 32.0°F0.0°C 83% 2.8 mph NE4.5 kmh NE 3.8 mph6.1 kmh 29.33 in993.2 mb 0.00 in0.0 mm 0.00 in0.0 mm 0.00 in0.0 mm
06:20 PM 36.1°F2.3°C 32.0°F0.0°C 83% 3.1 mph ENE5.0 kmh ENE 4.0 mph6.4 kmh 29.33 in993.2 mb 0.00 in0.0 mm 0.00 in0.0 mm 0.00 in0.0 mm
06:25 PM 36.0°F2.2°C 32.0°F0.0°C 83% 3.2 mph ENE5.1 kmh ENE 4.0 mph6.4 kmh 29.33 in993.2 mb 0.00 in0.0 mm 0.00 in0.0 mm 0.00 in0.0 mm
06:30 PM 35.6°F2.0°C 32.0°F0.0°C 83% 2.9 mph NE4.7 kmh NE 3.4 mph5.5 kmh 29.30 in992.2 mb 0.00 in0.0 mm 0.00 in0.0 mm 0.00 in0.0 mm
06:35 PM 35.4°F1.9°C 30.2°F-1.0°C 83% 3.1 mph ENE5.0 kmh ENE 4.0 mph6.4 kmh 29.30 in992.2 mb 0.00 in0.0 mm 0.00 in0.0 mm 0.00 in0.0 mm
06:40 PM 35.6°F2.0°C 32.0°F0.0°C 83% 3.6 mph ENE5.8 kmh ENE 4.0 mph6.4 kmh 29.30 in992.2 mb 0.00 in0.0 mm 0.00 in0.0 mm 0.00 in0.0 mm
06:45 PM 35.4°F1.9°C 30.2°F-1.0°C 83% 4.0 mph NE6.4 kmh NE 5.4 mph8.7 kmh 29.33 in993.2 mb 0.00 in0.0 mm 0.00 in0.0 mm 0.00 in0.0 mm
06:50 PM 35.2°F1.8°C 30.2°F-1.0°C 83% 4.3 mph NE6.9 kmh NE 5.4 mph8.7 kmh 29.33 in993.2 mb 0.00 in0.0 mm 0.00 in0.0 mm 0.00 in0.0 mm
06:55 PM 35.2°F1.8°C 30.2°F-1.0°C 83% 4.2 mph ENE6.8 kmh ENE 5.6 mph9.0 kmh 29.33 in993.2 mb 0.00 in0.0 mm 0.00 in0.0 mm 0.00 in0.0 mm
07:00 PM 35.2°F1.8°C 30.2°F-1.0°C 83% 4.1 mph ENE6.6 kmh ENE 5.6 mph9.0 kmh 29.30 in992.2 mb 0.00 in0.0 mm 0.00 in0.0 mm 0.00 in0.0 mm
07:05 PM 35.1°F1.7°C 30.2°F-1.0°C 83% 3.7 mph NE6.0 kmh NE 5.6 mph9.0 kmh 29.30 in992.2 mb 0.00 in0.0 mm 0.00 in0.0 mm 0.00 in0.0 mm
07:10 PM 35.2°F1.8°C 30.2°F-1.0°C 83% 3.2 mph NE5.1 kmh NE 3.6 mph5.8 kmh 29.30 in992.2 mb 0.00 in0.0 mm 0.00 in0.0 mm 0.00 in0.0 mm
07:15 PM 35.2°F1.8°C 30.2°F-1.0°C 83% 3.0 mph NE4.8 kmh NE 3.4 mph5.5 kmh 29.33 in993.2 mb 0.00 in0.0 mm 0.00 in0.0 mm 0.00 in0.0 mm
07:20 PM 35.2°F1.8°C 30.2°F-1.0°C 83% 3.1 mph NE5.0 kmh NE 3.6 mph5.8 kmh 29.33 in993.2 mb 0.00 in0.0 mm 0.00 in0.0 mm 0.00 in0.0 mm
07:25 PM 34.9°F1.6°C 30.2°F-1.0°C 83% 3.0 mph NE4.8 kmh NE 3.6 mph5.8 kmh 29.33 in993.2 mb 0.00 in0.0 mm 0.00 in0.0 mm 0.00 in0.0 mm
07:30 PM 34.9°F1.6°C 30.2°F-1.0°C 83% 2.9 mph NE4.7 kmh NE 3.6 mph5.8 kmh 29.30 in992.2 mb 0.00 in0.0 mm 0.00 in0.0 mm 0.00 in0.0 mm
07:35 PM 34.9°F1.6°C 30.2°F-1.0°C 83% 2.9 mph NE4.7 kmh NE 3.6 mph5.8 kmh 29.30 in992.2 mb 0.00 in0.0 mm 0.00 in0.0 mm 0.00 in0.0 mm
07:40 PM 35.2°F1.8°C 30.2°F-1.0°C 83% 3.0 mph NNE4.8 kmh NNE 3.6 mph5.8 kmh 29.30 in992.2 mb 0.00 in0.0 mm 0.00 in0.0 mm 0.00 in0.0 mm
07:45 PM 35.2°F1.8°C 30.2°F-1.0°C 83% 3.3 mph NNE5.3 kmh NNE 3.6 mph5.8 kmh 29.30 in992.2 mb 0.00 in0.0 mm 0.00 in0.0 mm 0.00 in0.0 mm
07:50 PM 35.2°F1.8°C 30.2°F-1.0°C 83% 3.3 mph NE5.3 kmh NE 4.0 mph6.4 kmh 29.30 in992.2 mb 0.00 in0.0 mm 0.00 in0.0 mm 0.00 in0.0 mm
07:55 PM 35.2°F1.8°C 30.2°F-1.0°C 83% 3.1 mph NE5.0 kmh NE 4.0 mph6.4 kmh 29.30 in992.2 mb 0.00 in0.0 mm 0.00 in0.0 mm 0.00 in0.0 mm
08:00 PM 35.2°F1.8°C 30.2°F-1.0°C 83% 2.8 mph NE4.5 kmh NE 3.4 mph5.5 kmh 29.30 in992.2 mb 0.00 in0.0 mm 0.00 in0.0 mm 0.00 in0.0 mm
08:05 PM 35.2°F1.8°C 30.2°F-1.0°C 83% 3.0 mph NE4.8 kmh NE 3.6 mph5.8 kmh 29.30 in992.2 mb 0.00 in0.0 mm 0.00 in0.0 mm 0.00 in0.0 mm
08:10 PM 35.4°F1.9°C 30.2°F-1.0°C 83% 3.1 mph NE5.0 kmh NE 3.8 mph6.1 kmh 29.30 in992.2 mb 0.00 in0.0 mm 0.00 in0.0 mm 0.00 in0.0 mm
08:15 PM 35.4°F1.9°C 30.2°F-1.0°C 83% 3.2 mph NE5.1 kmh NE 3.8 mph6.1 kmh 29.30 in992.2 mb 0.00 in0.0 mm 0.00 in0.0 mm 0.00 in0.0 mm
08:20 PM 35.4°F1.9°C 30.2°F-1.0°C 83% 3.2 mph NNE5.1 kmh NNE 3.8 mph6.1 kmh 29.30 in992.2 mb 0.00 in0.0 mm 0.00 in0.0 mm 0.00 in0.0 mm
08:25 PM 35.2°F1.8°C 30.2°F-1.0°C 83% 2.9 mph NE4.7 kmh NE 3.6 mph5.8 kmh 29.30 in992.2 mb 0.00 in0.0 mm 0.00 in0.0 mm 0.00 in0.0 mm
08:30 PM 35.1°F1.7°C 30.2°F-1.0°C 84% 2.9 mph NE4.7 kmh NE 3.6 mph5.8 kmh 29.30 in992.2 mb 0.00 in0.0 mm 0.00 in0.0 mm 0.00 in0.0 mm
08:35 PM 34.9°F1.6°C 30.2°F-1.0°C 84% 3.2 mph NE5.1 kmh NE 4.0 mph6.4 kmh 29.30 in992.2 mb 0.00 in0.0 mm 0.00 in0.0 mm 0.00 in0.0 mm
08:40 PM 34.7°F1.5°C 30.2°F-1.0°C 84% 3.5 mph NE5.6 kmh NE 4.3 mph6.9 kmh 29.30 in992.2 mb 0.00 in0.0 mm 0.00 in0.0 mm 0.00 in0.0 mm
08:45 PM 34.5°F1.4°C 30.2°F-1.0°C 84% 3.6 mph NE5.8 kmh NE 4.3 mph6.9 kmh 29.30 in992.2 mb 0.00 in0.0 mm 0.00 in0.0 mm 0.00 in0.0 mm
08:50 PM 34.3°F1.3°C 30.2°F-1.0°C 84% 3.2 mph NE5.1 kmh NE 3.8 mph6.1 kmh 29.30 in992.2 mb 0.00 in0.0 mm 0.00 in0.0 mm 0.00 in0.0 mm
08:55 PM 34.2°F1.2°C 30.2°F-1.0°C 84% 3.1 mph NE5.0 kmh NE 3.6 mph5.8 kmh 29.30 in992.2 mb 0.00 in0.0 mm 0.00 in0.0 mm 0.00 in0.0 mm
09:00 PM 34.2°F1.2°C 30.2°F-1.0°C 84% 3.4 mph NE5.5 kmh NE 4.0 mph6.4 kmh 29.30 in992.2 mb 0.00 in0.0 mm 0.00 in0.0 mm 0.00 in0.0 mm
09:05 PM 34.2°F1.2°C 30.2°F-1.0°C 84% 3.7 mph NE6.0 kmh NE 4.9 mph7.9 kmh 29.30 in992.2 mb 0.00 in0.0 mm 0.00 in0.0 mm 0.00 in0.0 mm
09:10 PM 34.3°F1.3°C 30.2°F-1.0°C 84% 4.0 mph NE6.4 kmh NE 4.9 mph7.9 kmh 29.30 in992.2 mb 0.00 in0.0 mm 0.00 in0.0 mm 0.00 in0.0 mm
09:15 PM 34.2°F1.2°C 30.2°F-1.0°C 84% 4.0 mph NE6.4 kmh NE 4.9 mph7.9 kmh 29.33 in993.2 mb 0.00 in0.0 mm 0.00 in0.0 mm 0.00 in0.0 mm
09:20 PM 34.2°F1.2°C 30.2°F-1.0°C 84% 3.9 mph NE6.3 kmh NE 4.3 mph6.9 kmh 29.33 in993.2 mb 0.00 in0.0 mm 0.00 in0.0 mm 0.00 in0.0 mm
09:25 PM 34.2°F1.2°C 30.2°F-1.0°C 84% 4.1 mph NE6.6 kmh NE 5.6 mph9.0 kmh 29.33 in993.2 mb 0.00 in0.0 mm 0.00 in0.0 mm 0.00 in0.0 mm
09:30 PM 34.2°F1.2°C 30.2°F-1.0°C 84% 4.1 mph NE6.6 kmh NE 5.6 mph9.0 kmh 29.33 in993.2 mb 0.00 in0.0 mm 0.00 in0.0 mm 0.00 in0.0 mm
09:35 PM 34.0°F1.1°C 30.2°F-1.0°C 84% 3.6 mph NNE5.8 kmh NNE 4.0 mph6.4 kmh 29.33 in993.2 mb 0.00 in0.0 mm 0.00 in0.0 mm 0.00 in0.0 mm
09:40 PM 34.2°F1.2°C 30.2°F-1.0°C 84% 4.2 mph NNE6.8 kmh NNE 5.4 mph8.7 kmh 29.33 in993.2 mb 0.00 in0.0 mm 0.00 in0.0 mm 0.00 in0.0 mm
09:45 PM 34.3°F1.3°C 30.2°F-1.0°C 84% 4.3 mph NNE6.9 kmh NNE 5.4 mph8.7 kmh 29.33 in993.2 mb 0.00 in0.0 mm 0.00 in0.0 mm 0.00 in0.0 mm
09:50 PM 34.7°F1.5°C 30.2°F-1.0°C 84% 4.0 mph NE6.4 kmh NE 5.6 mph9.0 kmh 29.33 in993.2 mb 0.00 in0.0 mm 0.00 in0.0 mm 0.00 in0.0 mm
09:55 PM 34.9°F1.6°C 30.2°F-1.0°C 84% 5.0 mph NE8.0 kmh NE 7.2 mph11.6 kmh 29.33 in993.2 mb 0.00 in0.0 mm 0.00 in0.0 mm 0.00 in0.0 mm
10:00 PM 35.2°F1.8°C 30.2°F-1.0°C 84% 5.2 mph NE8.4 kmh NE 7.2 mph11.6 kmh 29.33 in993.2 mb 0.00 in0.0 mm 0.00 in0.0 mm 0.00 in0.0 mm
10:05 PM 35.8°F2.1°C 32.0°F0.0°C 84% 5.0 mph NE8.0 kmh NE 6.3 mph10.1 kmh 29.33 in993.2 mb 0.00 in0.0 mm 0.00 in0.0 mm 0.00 in0.0 mm
10:10 PM 36.3°F2.4°C 32.0°F0.0°C 84% 5.3 mph NE8.5 kmh NE 6.3 mph10.1 kmh 29.33 in993.2 mb 0.00 in0.0 mm 0.00 in0.0 mm 0.00 in0.0 mm
10:15 PM 36.3°F2.4°C 32.0°F0.0°C 84% 5.4 mph NE8.7 kmh NE 6.3 mph10.1 kmh 29.33 in993.2 mb 0.00 in0.0 mm 0.00 in0.0 mm 0.00 in0.0 mm
10:20 PM 36.3°F2.4°C 32.0°F0.0°C 84% 4.9 mph NE7.9 kmh NE 6.0 mph9.7 kmh 29.33 in993.2 mb 0.00 in0.0 mm 0.00 in0.0 mm 0.00 in0.0 mm
10:25 PM 36.3°F2.4°C 33.8°F1.0°C 85% 4.3 mph NE6.9 kmh NE 5.8 mph9.3 kmh 29.33 in993.2 mb 0.00 in0.0 mm 0.00 in0.0 mm 0.00 in0.0 mm
10:30 PM 36.7°F2.6°C 33.8°F1.0°C 85% 4.0 mph NE6.4 kmh NE 5.4 mph8.7 kmh 29.33 in993.2 mb 0.00 in0.0 mm 0.00 in0.0 mm 0.00 in0.0 mm
10:35 PM 37.0°F2.8°C 33.8°F1.0°C 85% 4.2 mph NE6.8 kmh NE 4.9 mph7.9 kmh 29.33 in993.2 mb 0.00 in0.0 mm 0.00 in0.0 mm 0.00 in0.0 mm
10:40 PM 37.0°F2.8°C 33.8°F1.0°C 85% 3.8 mph NE6.1 kmh NE 4.9 mph7.9 kmh 29.33 in993.2 mb 0.00 in0.0 mm 0.00 in0.0 mm 0.00 in0.0 mm
10:45 PM 37.2°F2.9°C 33.8°F1.0°C 85% 4.0 mph NE6.4 kmh NE 5.6 mph9.0 kmh 29.33 in993.2 mb 0.00 in0.0 mm 0.00 in0.0 mm 0.00 in0.0 mm
10:50 PM 37.2°F2.9°C 33.8°F1.0°C 85% 3.5 mph NE5.6 kmh NE 5.6 mph9.0 kmh 29.33 in993.2 mb 0.00 in0.0 mm 0.00 in0.0 mm 0.00 in0.0 mm
10:55 PM 37.2°F2.9°C 33.8°F1.0°C 85% 3.2 mph NE5.1 kmh NE 3.8 mph6.1 kmh 29.33 in993.2 mb 0.00 in0.0 mm 0.00 in0.0 mm 0.00 in0.0 mm
11:00 PM 37.2°F2.9°C 33.8°F1.0°C 85% 3.2 mph NE5.1 kmh NE 3.8 mph6.1 kmh 29.33 in993.2 mb 0.00 in0.0 mm 0.00 in0.0 mm 0.00 in0.0 mm
11:05 PM 37.0°F2.8°C 33.8°F1.0°C 85% 3.4 mph NE5.5 kmh NE 3.8 mph6.1 kmh 29.33 in993.2 mb 0.00 in0.0 mm 0.00 in0.0 mm 0.00 in0.0 mm
11:10 PM 37.0°F2.8°C 33.8°F1.0°C 85% 3.2 mph NE5.1 kmh NE 3.8 mph6.1 kmh 29.33 in993.2 mb 0.00 in0.0 mm 0.00 in0.0 mm 0.00 in0.0 mm
11:15 PM 37.0°F2.8°C 33.8°F1.0°C 85% 3.1 mph NE5.0 kmh NE 3.6 mph5.8 kmh 29.33 in993.2 mb 0.00 in0.0 mm 0.00 in0.0 mm 0.00 in0.0 mm
11:20 PM 36.9°F2.7°C 33.8°F1.0°C 85% 2.9 mph NE4.7 kmh NE 3.6 mph5.8 kmh 29.33 in993.2 mb 0.00 in0.0 mm 0.00 in0.0 mm 0.00 in0.0 mm
11:25 PM 36.9°F2.7°C 33.8°F1.0°C 85% 3.0 mph NNE4.8 kmh NNE 5.6 mph9.0 kmh 29.33 in993.2 mb 0.00 in0.0 mm 0.00 in0.0 mm 0.00 in0.0 mm
11:30 PM 36.9°F2.7°C 33.8°F1.0°C 85% 3.7 mph NNE6.0 kmh NNE 5.6 mph9.0 kmh 29.33 in993.2 mb 0.00 in0.0 mm 0.00 in0.0 mm 0.00 in0.0 mm
11:35 PM 36.7°F2.6°C 33.8°F1.0°C 85% 4.4 mph NNE7.1 kmh NNE 5.6 mph9.0 kmh 29.33 in993.2 mb 0.00 in0.0 mm 0.00 in0.0 mm 0.00 in0.0 mm
11:40 PM 36.3°F2.4°C 33.8°F1.0°C 85% 3.9 mph NE6.3 kmh NE 5.4 mph8.7 kmh 29.33 in993.2 mb 0.00 in0.0 mm 0.00 in0.0 mm 0.00 in0.0 mm
11:45 PM 36.3°F2.4°C 33.8°F1.0°C 85% 4.0 mph NE6.4 kmh NE 4.9 mph7.9 kmh 29.33 in993.2 mb 0.00 in0.0 mm 0.00 in0.0 mm 0.00 in0.0 mm
11:50 PM 36.3°F2.4°C 33.8°F1.0°C 85% 4.3 mph NE6.9 kmh NE 6.0 mph9.7 kmh 29.33 in993.2 mb 0.00 in0.0 mm 0.00 in0.0 mm 0.00 in0.0 mm
11:55 PM 36.3°F2.4°C 33.8°F1.0°C 85% 4.0 mph NE6.4 kmh NE 6.0 mph9.7 kmh 29.33 in993.2 mb 0.00 in0.0 mm 0.00 in0.0 mm 0.00 in0.0 mm